sensor_id;sensor_type;location;lat;lon;timestamp;temperature;humidity
56172;DHT22;42052;41.634;-0.946;2023-02-08T00:00:47;19.70;36.50
56172;DHT22;42052;41.634;-0.946;2023-02-08T00:03:33;19.70;36.60
56172;DHT22;42052;41.634;-0.946;2023-02-08T00:06:19;19.70;36.60
56172;DHT22;42052;41.634;-0.946;2023-02-08T00:09:05;19.70;36.60
56172;DHT22;42052;41.634;-0.946;2023-02-08T00:11:51;19.70;36.60
56172;DHT22;42052;41.634;-0.946;2023-02-08T00:14:37;19.60;36.60
56172;DHT22;42052;41.634;-0.946;2023-02-08T00:17:23;19.60;36.70
56172;DHT22;42052;41.634;-0.946;2023-02-08T00:20:09;19.60;36.80
56172;DHT22;42052;41.634;-0.946;2023-02-08T00:22:56;19.60;36.80
56172;DHT22;42052;41.634;-0.946;2023-02-08T00:25:41;19.60;36.70
56172;DHT22;42052;41.634;-0.946;2023-02-08T00:28:27;19.60;36.70
56172;DHT22;42052;41.634;-0.946;2023-02-08T00:31:13;19.50;36.70
56172;DHT22;42052;41.634;-0.946;2023-02-08T00:33:59;19.50;36.80
56172;DHT22;42052;41.634;-0.946;2023-02-08T00:36:45;19.50;36.70
56172;DHT22;42052;41.634;-0.946;2023-02-08T00:39:31;19.50;36.70
56172;DHT22;42052;41.634;-0.946;2023-02-08T00:42:17;19.50;36.80
56172;DHT22;42052;41.634;-0.946;2023-02-08T00:45:03;19.50;36.90
56172;DHT22;42052;41.634;-0.946;2023-02-08T00:47:50;19.50;37.30
56172;DHT22;42052;41.634;-0.946;2023-02-08T00:50:35;19.40;36.80
56172;DHT22;42052;41.634;-0.946;2023-02-08T00:53:21;19.40;36.90
56172;DHT22;42052;41.634;-0.946;2023-02-08T00:56:08;19.50;37.00
56172;DHT22;42052;41.634;-0.946;2023-02-08T00:58:54;19.50;37.00
56172;DHT22;42052;41.634;-0.946;2023-02-08T01:01:40;19.40;37.00
56172;DHT22;42052;41.634;-0.946;2023-02-08T01:04:26;19.40;36.90
56172;DHT22;42052;41.634;-0.946;2023-02-08T01:07:12;19.40;37.00
56172;DHT22;42052;41.634;-0.946;2023-02-08T01:09:57;19.40;37.10
56172;DHT22;42052;41.634;-0.946;2023-02-08T01:12:45;19.40;37.10
56172;DHT22;42052;41.634;-0.946;2023-02-08T01:15:31;19.40;37.00
56172;DHT22;42052;41.634;-0.946;2023-02-08T01:18:17;19.40;37.00
56172;DHT22;42052;41.634;-0.946;2023-02-08T01:21:04;19.30;37.10
56172;DHT22;42052;41.634;-0.946;2023-02-08T01:23:50;19.40;37.90
56172;DHT22;42052;41.634;-0.946;2023-02-08T01:26:36;19.40;37.20
56172;DHT22;42052;41.634;-0.946;2023-02-08T01:29:22;19.30;37.10
56172;DHT22;42052;41.634;-0.946;2023-02-08T01:32:08;19.30;37.20
56172;DHT22;42052;41.634;-0.946;2023-02-08T01:34:54;19.30;37.30
56172;DHT22;42052;41.634;-0.946;2023-02-08T01:37:40;19.30;37.30
56172;DHT22;42052;41.634;-0.946;2023-02-08T01:40:26;19.30;37.30
56172;DHT22;42052;41.634;-0.946;2023-02-08T01:43:15;19.30;37.30
56172;DHT22;42052;41.634;-0.946;2023-02-08T01:46:03;19.30;37.40
56172;DHT22;42052;41.634;-0.946;2023-02-08T01:48:49;19.30;37.40
56172;DHT22;42052;41.634;-0.946;2023-02-08T01:51:37;19.20;37.30
56172;DHT22;42052;41.634;-0.946;2023-02-08T01:54:24;19.20;37.40
56172;DHT22;42052;41.634;-0.946;2023-02-08T01:57:11;19.20;37.50
56172;DHT22;42052;41.634;-0.946;2023-02-08T01:59:58;19.20;37.50
56172;DHT22;42052;41.634;-0.946;2023-02-08T02:02:44;19.30;37.40
56172;DHT22;42052;41.634;-0.946;2023-02-08T02:05:33;19.20;37.50
56172;DHT22;42052;41.634;-0.946;2023-02-08T02:08:20;19.30;37.70
56172;DHT22;42052;41.634;-0.946;2023-02-08T02:11:05;19.30;37.80
56172;DHT22;42052;41.634;-0.946;2023-02-08T02:13:51;19.30;37.80
56172;DHT22;42052;41.634;-0.946;2023-02-08T02:16:38;19.30;37.80
56172;DHT22;42052;41.634;-0.946;2023-02-08T02:36:51;19.30;37.60
56172;DHT22;42052;41.634;-0.946;2023-02-08T02:42:34;19.40;37.60
56172;DHT22;42052;41.634;-0.946;2023-02-08T02:48:49;19.40;37.60
56172;DHT22;42052;41.634;-0.946;2023-02-08T02:54:25;19.40;37.60
56172;DHT22;42052;41.634;-0.946;2023-02-08T02:57:13;19.40;37.60
56172;DHT22;42052;41.634;-0.946;2023-02-08T03:00:05;19.40;37.60
56172;DHT22;42052;41.634;-0.946;2023-02-08T03:02:51;19.40;37.60
56172;DHT22;42052;41.634;-0.946;2023-02-08T03:05:38;19.40;37.60
56172;DHT22;42052;41.634;-0.946;2023-02-08T03:11:13;19.40;37.70
56172;DHT22;42052;41.634;-0.946;2023-02-08T03:14:22;19.40;37.50
56172;DHT22;42052;41.634;-0.946;2023-02-08T03:25:50;19.40;37.60
56172;DHT22;42052;41.634;-0.946;2023-02-08T03:28:44;19.40;37.50
56172;DHT22;42052;41.634;-0.946;2023-02-08T03:31:37;19.50;37.60
56172;DHT22;42052;41.634;-0.946;2023-02-08T03:37:14;19.40;37.50
56172;DHT22;42052;41.634;-0.946;2023-02-08T03:40:13;19.50;37.60
56172;DHT22;42052;41.634;-0.946;2023-02-08T03:43:02;19.40;37.50
56172;DHT22;42052;41.634;-0.946;2023-02-08T03:45:50;19.50;37.50
56172;DHT22;42052;41.634;-0.946;2023-02-08T03:48:38;19.40;37.50
56172;DHT22;42052;41.634;-0.946;2023-02-08T03:51:25;19.50;37.50
56172;DHT22;42052;41.634;-0.946;2023-02-08T03:54:14;19.50;37.60
56172;DHT22;42052;41.634;-0.946;2023-02-08T03:57:06;19.50;37.50
56172;DHT22;42052;41.634;-0.946;2023-02-08T03:59:59;19.50;37.60
56172;DHT22;42052;41.634;-0.946;2023-02-08T04:02:47;19.50;37.60
56172;DHT22;42052;41.634;-0.946;2023-02-08T04:05:35;19.50;37.60
56172;DHT22;42052;41.634;-0.946;2023-02-08T04:08:21;19.50;37.60
56172;DHT22;42052;41.634;-0.946;2023-02-08T04:11:07;19.40;37.60
56172;DHT22;42052;41.634;-0.946;2023-02-08T04:13:53;19.50;37.60
56172;DHT22;42052;41.634;-0.946;2023-02-08T04:16:39;19.50;37.60
56172;DHT22;42052;41.634;-0.946;2023-02-08T04:19:25;19.50;37.60
56172;DHT22;42052;41.634;-0.946;2023-02-08T04:22:11;19.50;37.60
56172;DHT22;42052;41.634;-0.946;2023-02-08T04:24:57;19.50;37.60
56172;DHT22;42052;41.634;-0.946;2023-02-08T04:27:43;19.50;37.60
56172;DHT22;42052;41.634;-0.946;2023-02-08T04:30:29;19.50;37.60
56172;DHT22;42052;41.634;-0.946;2023-02-08T04:33:15;19.50;37.70
56172;DHT22;42052;41.634;-0.946;2023-02-08T04:36:01;19.50;37.70
56172;DHT22;42052;41.634;-0.946;2023-02-08T04:38:47;19.50;37.70
56172;DHT22;42052;41.634;-0.946;2023-02-08T04:41:33;19.50;37.70
56172;DHT22;42052;41.634;-0.946;2023-02-08T04:44:19;19.50;37.70
56172;DHT22;42052;41.634;-0.946;2023-02-08T04:47:05;19.50;38.40
56172;DHT22;42052;41.634;-0.946;2023-02-08T04:49:51;19.50;37.70
56172;DHT22;42052;41.634;-0.946;2023-02-08T04:52:37;19.50;37.60
56172;DHT22;42052;41.634;-0.946;2023-02-08T04:55:22;19.50;37.60
56172;DHT22;42052;41.634;-0.946;2023-02-08T04:58:08;19.50;37.60
56172;DHT22;42052;41.634;-0.946;2023-02-08T05:00:54;19.60;37.60
56172;DHT22;42052;41.634;-0.946;2023-02-08T05:03:40;19.50;37.60
56172;DHT22;42052;41.634;-0.946;2023-02-08T05:06:26;19.60;37.70
56172;DHT22;42052;41.634;-0.946;2023-02-08T05:09:12;19.60;37.60
56172;DHT22;42052;41.634;-0.946;2023-02-08T05:11:58;19.60;37.60
56172;DHT22;42052;41.634;-0.946;2023-02-08T05:14:44;19.60;37.60
56172;DHT22;42052;41.634;-0.946;2023-02-08T05:17:30;19.60;37.60
56172;DHT22;42052;41.634;-0.946;2023-02-08T05:20:16;19.50;37.50
56172;DHT22;42052;41.634;-0.946;2023-02-08T05:23:02;19.60;37.60
56172;DHT22;42052;41.634;-0.946;2023-02-08T05:25:48;19.60;37.60
56172;DHT22;42052;41.634;-0.946;2023-02-08T05:28:34;19.60;37.60
56172;DHT22;42052;41.634;-0.946;2023-02-08T05:31:21;19.60;37.60
56172;DHT22;42052;41.634;-0.946;2023-02-08T05:34:08;19.60;37.60
56172;DHT22;42052;41.634;-0.946;2023-02-08T05:36:53;19.60;37.60
56172;DHT22;42052;41.634;-0.946;2023-02-08T05:39:39;19.60;37.60
56172;DHT22;42052;41.634;-0.946;2023-02-08T05:42:25;19.60;37.50
56172;DHT22;42052;41.634;-0.946;2023-02-08T05:45:12;19.60;37.50
56172;DHT22;42052;41.634;-0.946;2023-02-08T05:47:58;19.60;37.50
56172;DHT22;42052;41.634;-0.946;2023-02-08T05:50:43;19.60;37.50
56172;DHT22;42052;41.634;-0.946;2023-02-08T05:53:29;19.60;37.50
56172;DHT22;42052;41.634;-0.946;2023-02-08T05:56:15;19.60;37.50
56172;DHT22;42052;41.634;-0.946;2023-02-08T05:59:01;19.60;37.50
56172;DHT22;42052;41.634;-0.946;2023-02-08T06:01:48;19.60;37.50
56172;DHT22;42052;41.634;-0.946;2023-02-08T06:04:34;19.60;37.90
56172;DHT22;42052;41.634;-0.946;2023-02-08T06:20:38;19.70;37.00
56172;DHT22;42052;41.634;-0.946;2023-02-08T06:23:24;19.60;37.80
56172;DHT22;42052;41.634;-0.946;2023-02-08T06:26:10;19.70;37.70
56172;DHT22;42052;41.634;-0.946;2023-02-08T06:28:58;19.70;37.80
56172;DHT22;42052;41.634;-0.946;2023-02-08T06:31:44;19.70;37.80
56172;DHT22;42052;41.634;-0.946;2023-02-08T06:34:30;19.70;37.80
56172;DHT22;42052;41.634;-0.946;2023-02-08T06:37:17;19.70;37.80
56172;DHT22;42052;41.634;-0.946;2023-02-08T06:40:04;19.70;37.90
56172;DHT22;42052;41.634;-0.946;2023-02-08T06:42:51;19.70;37.90
56172;DHT22;42052;41.634;-0.946;2023-02-08T06:45:37;19.60;37.80
56172;DHT22;42052;41.634;-0.946;2023-02-08T06:48:23;19.60;37.80
56172;DHT22;42052;41.634;-0.946;2023-02-08T06:51:09;19.70;37.80
56172;DHT22;42052;41.634;-0.946;2023-02-08T06:53:55;19.70;37.80
56172;DHT22;42052;41.634;-0.946;2023-02-08T06:56:42;19.70;37.70
56172;DHT22;42052;41.634;-0.946;2023-02-08T06:59:28;19.60;37.70
56172;DHT22;42052;41.634;-0.946;2023-02-08T07:02:17;19.60;37.70
56172;DHT22;42052;41.634;-0.946;2023-02-08T07:05:03;19.60;37.70
56172;DHT22;42052;41.634;-0.946;2023-02-08T07:07:49;19.60;37.80
56172;DHT22;42052;41.634;-0.946;2023-02-08T07:10:38;19.60;37.70
56172;DHT22;42052;41.634;-0.946;2023-02-08T07:13:25;19.50;37.60
56172;DHT22;42052;41.634;-0.946;2023-02-08T07:16:11;19.60;37.70
56172;DHT22;42052;41.634;-0.946;2023-02-08T07:18:57;19.50;37.60
56172;DHT22;42052;41.634;-0.946;2023-02-08T07:21:43;19.50;37.70
56172;DHT22;42052;41.634;-0.946;2023-02-08T07:24:30;19.50;37.80
56172;DHT22;42052;41.634;-0.946;2023-02-08T07:27:16;19.50;37.70
56172;DHT22;42052;41.634;-0.946;2023-02-08T07:30:03;19.50;37.70
56172;DHT22;42052;41.634;-0.946;2023-02-08T07:32:49;19.40;37.70
56172;DHT22;42052;41.634;-0.946;2023-02-08T07:35:35;19.50;37.80
56172;DHT22;42052;41.634;-0.946;2023-02-08T07:38:22;19.50;37.80
56172;DHT22;42052;41.634;-0.946;2023-02-08T07:41:11;19.40;37.70
56172;DHT22;42052;41.634;-0.946;2023-02-08T07:43:58;19.40;37.70
56172;DHT22;42052;41.634;-0.946;2023-02-08T07:46:45;19.40;37.70
56172;DHT22;42052;41.634;-0.946;2023-02-08T07:49:32;19.40;37.70
56172;DHT22;42052;41.634;-0.946;2023-02-08T07:52:18;19.40;37.80
56172;DHT22;42052;41.634;-0.946;2023-02-08T07:55:04;19.40;37.80
56172;DHT22;42052;41.634;-0.946;2023-02-08T07:57:50;19.30;37.80
56172;DHT22;42052;41.634;-0.946;2023-02-08T08:00:36;19.40;37.80
56172;DHT22;42052;41.634;-0.946;2023-02-08T08:03:23;19.30;37.80
56172;DHT22;42052;41.634;-0.946;2023-02-08T08:06:09;19.30;37.80
56172;DHT22;42052;41.634;-0.946;2023-02-08T08:08:55;19.30;37.80
56172;DHT22;42052;41.634;-0.946;2023-02-08T08:11:42;19.20;37.80
56172;DHT22;42052;41.634;-0.946;2023-02-08T08:14:28;19.30;37.90
56172;DHT22;42052;41.634;-0.946;2023-02-08T08:17:14;19.30;38.70
56172;DHT22;42052;41.634;-0.946;2023-02-08T08:20:00;19.30;38.00
56172;DHT22;42052;41.634;-0.946;2023-02-08T08:22:47;19.20;37.90
56172;DHT22;42052;41.634;-0.946;2023-02-08T08:25:33;19.30;38.00
56172;DHT22;42052;41.634;-0.946;2023-02-08T08:28:19;19.20;37.90
56172;DHT22;42052;41.634;-0.946;2023-02-08T08:31:10;19.20;37.90
56172;DHT22;42052;41.634;-0.946;2023-02-08T08:33:57;19.20;37.80
56172;DHT22;42052;41.634;-0.946;2023-02-08T08:36:43;19.30;37.90
56172;DHT22;42052;41.634;-0.946;2023-02-08T08:39:29;19.20;37.80
56172;DHT22;42052;41.634;-0.946;2023-02-08T08:42:15;19.20;37.80
56172;DHT22;42052;41.634;-0.946;2023-02-08T08:45:03;19.20;37.80
56172;DHT22;42052;41.634;-0.946;2023-02-08T08:47:49;19.20;37.80
56172;DHT22;42052;41.634;-0.946;2023-02-08T08:50:35;19.20;37.80
56172;DHT22;42052;41.634;-0.946;2023-02-08T08:53:22;19.20;37.80
56172;DHT22;42052;41.634;-0.946;2023-02-08T08:56:08;19.20;37.80
56172;DHT22;42052;41.634;-0.946;2023-02-08T08:58:54;19.20;37.80
56172;DHT22;42052;41.634;-0.946;2023-02-08T09:01:40;19.20;37.80
56172;DHT22;42052;41.634;-0.946;2023-02-08T09:04:27;19.20;37.80
56172;DHT22;42052;41.634;-0.946;2023-02-08T09:07:13;19.20;37.80
56172;DHT22;42052;41.634;-0.946;2023-02-08T09:09:59;19.20;37.80
56172;DHT22;42052;41.634;-0.946;2023-02-08T09:12:45;19.20;37.80
56172;DHT22;42052;41.634;-0.946;2023-02-08T09:15:31;19.10;37.70
56172;DHT22;42052;41.634;-0.946;2023-02-08T09:18:17;19.20;37.80
56172;DHT22;42052;41.634;-0.946;2023-02-08T09:21:08;19.20;37.80
56172;DHT22;42052;41.634;-0.946;2023-02-08T09:23:54;19.20;37.80
56172;DHT22;42052;41.634;-0.946;2023-02-08T09:26:40;19.20;37.80
56172;DHT22;42052;41.634;-0.946;2023-02-08T09:29:26;19.10;38.60
56172;DHT22;42052;41.634;-0.946;2023-02-08T09:32:14;19.10;37.80
56172;DHT22;42052;41.634;-0.946;2023-02-08T09:35:01;19.20;37.80
56172;DHT22;42052;41.634;-0.946;2023-02-08T09:37:47;19.20;37.80
56172;DHT22;42052;41.634;-0.946;2023-02-08T09:40:50;19.20;37.80
56172;DHT22;42052;41.634;-0.946;2023-02-08T09:46:30;19.10;37.80
56172;DHT22;42052;41.634;-0.946;2023-02-08T09:49:25;19.10;37.80
56172;DHT22;42052;41.634;-0.946;2023-02-08T09:52:16;19.10;37.80
56172;DHT22;42052;41.634;-0.946;2023-02-08T10:01:24;19.10;37.90
56172;DHT22;42052;41.634;-0.946;2023-02-08T10:04:21;19.10;37.90
56172;DHT22;42052;41.634;-0.946;2023-02-08T10:07:10;19.10;37.90
56172;DHT22;42052;41.634;-0.946;2023-02-08T10:10:00;19.10;37.90
56172;DHT22;42052;41.634;-0.946;2023-02-08T10:35:29;19.00;38.00
56172;DHT22;42052;41.634;-0.946;2023-02-08T10:41:09;19.00;38.00
56172;DHT22;42052;41.634;-0.946;2023-02-08T10:44:31;19.00;38.10
56172;DHT22;42052;41.634;-0.946;2023-02-08T10:50:35;19.00;38.10
56172;DHT22;42052;41.634;-0.946;2023-02-08T10:53:21;19.00;38.10
56172;DHT22;42052;41.634;-0.946;2023-02-08T10:59:20;19.00;38.10
56172;DHT22;42052;41.634;-0.946;2023-02-08T11:02:22;19.00;38.20
56172;DHT22;42052;41.634;-0.946;2023-02-08T11:05:17;18.90;38.10
56172;DHT22;42052;41.634;-0.946;2023-02-08T11:08:12;18.90;38.10
56172;DHT22;42052;41.634;-0.946;2023-02-08T11:11:06;18.90;38.10
56172;DHT22;42052;41.634;-0.946;2023-02-08T11:14:24;18.90;38.10
56172;DHT22;42052;41.634;-0.946;2023-02-08T11:17:24;18.90;38.10
56172;DHT22;42052;41.634;-0.946;2023-02-08T11:20:38;19.00;38.20
56172;DHT22;42052;41.634;-0.946;2023-02-08T11:23:32;18.90;38.10
56172;DHT22;42052;41.634;-0.946;2023-02-08T11:29:23;18.90;38.10
56172;DHT22;42052;41.634;-0.946;2023-02-08T11:32:18;18.90;38.10
56172;DHT22;42052;41.634;-0.946;2023-02-08T11:38:16;18.90;38.20
56172;DHT22;42052;41.634;-0.946;2023-02-08T11:41:12;18.90;38.20
56172;DHT22;42052;41.634;-0.946;2023-02-08T11:44:04;18.90;38.30
56172;DHT22;42052;41.634;-0.946;2023-02-08T11:46:52;18.90;38.20
56172;DHT22;42052;41.634;-0.946;2023-02-08T11:49:41;18.90;38.20
56172;DHT22;42052;41.634;-0.946;2023-02-08T11:52:34;18.90;38.20
56172;DHT22;42052;41.634;-0.946;2023-02-08T11:55:24;18.90;38.20
56172;DHT22;42052;41.634;-0.946;2023-02-08T12:01:08;18.80;38.20
56172;DHT22;42052;41.634;-0.946;2023-02-08T12:04:06;18.80;38.20
56172;DHT22;42052;41.634;-0.946;2023-02-08T12:23:03;18.80;38.30
56172;DHT22;42052;41.634;-0.946;2023-02-08T12:26:00;18.80;38.30
56172;DHT22;42052;41.634;-0.946;2023-02-08T12:44:58;18.80;38.30
56172;DHT22;42052;41.634;-0.946;2023-02-08T12:48:02;18.80;38.30
56172;DHT22;42052;41.634;-0.946;2023-02-08T12:54:15;18.80;38.40
56172;DHT22;42052;41.634;-0.946;2023-02-08T12:57:04;18.80;38.30
56172;DHT22;42052;41.634;-0.946;2023-02-08T12:59:56;18.80;38.40
56172;DHT22;42052;41.634;-0.946;2023-02-08T13:05:54;18.80;38.30
56172;DHT22;42052;41.634;-0.946;2023-02-08T13:08:46;18.80;38.40
56172;DHT22;42052;41.634;-0.946;2023-02-08T13:14:31;18.80;38.40
56172;DHT22;42052;41.634;-0.946;2023-02-08T13:17:30;18.80;38.30
56172;DHT22;42052;41.634;-0.946;2023-02-08T13:23:33;18.80;38.30
56172;DHT22;42052;41.634;-0.946;2023-02-08T13:26:28;18.80;38.30
56172;DHT22;42052;41.634;-0.946;2023-02-08T13:29:18;18.80;38.30
56172;DHT22;42052;41.634;-0.946;2023-02-08T13:32:08;18.80;38.30
56172;DHT22;42052;41.634;-0.946;2023-02-08T13:35:17;18.80;38.40
56172;DHT22;42052;41.634;-0.946;2023-02-08T13:38:17;18.80;38.30
56172;DHT22;42052;41.634;-0.946;2023-02-08T13:41:16;18.80;38.30
56172;DHT22;42052;41.634;-0.946;2023-02-08T13:44:08;18.80;38.30
56172;DHT22;42052;41.634;-0.946;2023-02-08T13:47:04;18.80;38.30
56172;DHT22;42052;41.634;-0.946;2023-02-08T13:49:56;18.80;38.30
56172;DHT22;42052;41.634;-0.946;2023-02-08T13:52:46;18.80;38.40
56172;DHT22;42052;41.634;-0.946;2023-02-08T14:01:35;18.80;38.40
56172;DHT22;42052;41.634;-0.946;2023-02-08T14:04:29;18.80;38.40
56172;DHT22;42052;41.634;-0.946;2023-02-08T14:07:45;18.80;38.30
56172;DHT22;42052;41.634;-0.946;2023-02-08T14:10:40;18.80;38.40
56172;DHT22;42052;41.634;-0.946;2023-02-08T14:13:38;18.80;38.40
56172;DHT22;42052;41.634;-0.946;2023-02-08T14:19:43;18.80;38.40
56172;DHT22;42052;41.634;-0.946;2023-02-08T14:22:38;18.80;38.30
56172;DHT22;42052;41.634;-0.946;2023-02-08T14:25:43;18.80;38.30
56172;DHT22;42052;41.634;-0.946;2023-02-08T14:28:37;18.80;38.30
56172;DHT22;42052;41.634;-0.946;2023-02-08T14:31:38;18.80;38.30
56172;DHT22;42052;41.634;-0.946;2023-02-08T14:34:32;18.80;38.30
56172;DHT22;42052;41.634;-0.946;2023-02-08T14:49:25;18.80;38.30
56172;DHT22;42052;41.634;-0.946;2023-02-08T14:52:21;18.80;38.30
56172;DHT22;42052;41.634;-0.946;2023-02-08T14:55:18;18.80;38.30
56172;DHT22;42052;41.634;-0.946;2023-02-08T14:58:09;18.80;38.40
56172;DHT22;42052;41.634;-0.946;2023-02-08T15:01:01;18.80;38.40
56172;DHT22;42052;41.634;-0.946;2023-02-08T15:03:50;18.70;39.10
56172;DHT22;42052;41.634;-0.946;2023-02-08T15:09:29;18.80;38.40
56172;DHT22;42052;41.634;-0.946;2023-02-08T15:12:34;18.80;38.40
56172;DHT22;42052;41.634;-0.946;2023-02-08T15:18:18;18.70;38.30
56172;DHT22;42052;41.634;-0.946;2023-02-08T15:21:13;18.80;38.40
56172;DHT22;42052;41.634;-0.946;2023-02-08T15:24:15;18.80;38.30
56172;DHT22;42052;41.634;-0.946;2023-02-08T15:27:02;18.80;38.20
56172;DHT22;42052;41.634;-0.946;2023-02-08T15:29:49;18.80;38.20
56172;DHT22;42052;41.634;-0.946;2023-02-08T15:32:35;18.80;38.20
56172;DHT22;42052;41.634;-0.946;2023-02-08T15:35:21;18.80;38.10
56172;DHT22;42052;41.634;-0.946;2023-02-08T15:38:17;18.80;38.10
56172;DHT22;42052;41.634;-0.946;2023-02-08T15:41:22;18.90;38.20
56172;DHT22;42052;41.634;-0.946;2023-02-08T15:44:31;18.90;38.20
56172;DHT22;42052;41.634;-0.946;2023-02-08T15:47:26;18.90;38.10
56172;DHT22;42052;41.634;-0.946;2023-02-08T15:50:18;18.90;38.10
56172;DHT22;42052;41.634;-0.946;2023-02-08T15:53:09;18.90;38.10
56172;DHT22;42052;41.634;-0.946;2023-02-08T15:56:00;18.90;38.10
56172;DHT22;42052;41.634;-0.946;2023-02-08T15:58:53;18.90;38.10
56172;DHT22;42052;41.634;-0.946;2023-02-08T16:01:45;18.90;38.10
56172;DHT22;42052;41.634;-0.946;2023-02-08T16:04:43;18.90;38.00
56172;DHT22;42052;41.634;-0.946;2023-02-08T16:07:38;18.90;38.10
56172;DHT22;42052;41.634;-0.946;2023-02-08T16:13:22;19.00;38.10
56172;DHT22;42052;41.634;-0.946;2023-02-08T16:16:17;18.90;38.00
56172;DHT22;42052;41.634;-0.946;2023-02-08T16:25:36;18.90;38.00
56172;DHT22;42052;41.634;-0.946;2023-02-08T16:28:28;18.90;38.00
56172;DHT22;42052;41.634;-0.946;2023-02-08T16:31:19;18.90;38.00
56172;DHT22;42052;41.634;-0.946;2023-02-08T16:34:13;18.90;38.00
56172;DHT22;42052;41.634;-0.946;2023-02-08T16:36:59;18.90;38.10
56172;DHT22;42052;41.634;-0.946;2023-02-08T16:42:39;18.90;38.10
56172;DHT22;42052;41.634;-0.946;2023-02-08T16:45:25;18.90;38.20
56172;DHT22;42052;41.634;-0.946;2023-02-08T16:48:31;18.90;38.20
56172;DHT22;42052;41.634;-0.946;2023-02-08T16:51:26;18.90;38.20
56172;DHT22;42052;41.634;-0.946;2023-02-08T16:54:19;18.90;38.10
56172;DHT22;42052;41.634;-0.946;2023-02-08T16:57:07;18.90;38.00
56172;DHT22;42052;41.634;-0.946;2023-02-08T16:59:54;18.90;38.00
56172;DHT22;42052;41.634;-0.946;2023-02-08T17:02:41;18.90;38.00
56172;DHT22;42052;41.634;-0.946;2023-02-08T17:05:30;19.00;38.00
56172;DHT22;42052;41.634;-0.946;2023-02-08T17:08:19;19.00;38.00
56172;DHT22;42052;41.634;-0.946;2023-02-08T17:11:07;19.00;38.00
56172;DHT22;42052;41.634;-0.946;2023-02-08T17:13:54;18.90;38.00
56172;DHT22;42052;41.634;-0.946;2023-02-08T17:16:40;19.00;38.10
56172;DHT22;42052;41.634;-0.946;2023-02-08T17:19:26;19.00;37.90
56172;DHT22;42052;41.634;-0.946;2023-02-08T17:22:12;19.00;37.90
56172;DHT22;42052;41.634;-0.946;2023-02-08T17:24:58;19.10;38.00
56172;DHT22;42052;41.634;-0.946;2023-02-08T17:30:37;19.30;37.80
56172;DHT22;42052;41.634;-0.946;2023-02-08T17:33:24;19.40;37.70
56172;DHT22;42052;41.634;-0.946;2023-02-08T17:36:13;19.40;37.60
56172;DHT22;42052;41.634;-0.946;2023-02-08T17:39:00;19.50;37.60
56172;DHT22;42052;41.634;-0.946;2023-02-08T17:41:46;19.50;37.50
56172;DHT22;42052;41.634;-0.946;2023-02-08T17:44:32;19.60;37.50
56172;DHT22;42052;41.634;-0.946;2023-02-08T17:47:18;19.60;37.40
56172;DHT22;42052;41.634;-0.946;2023-02-08T17:50:05;19.70;37.40
56172;DHT22;42052;41.634;-0.946;2023-02-08T17:52:52;19.70;37.40
56172;DHT22;42052;41.634;-0.946;2023-02-08T17:55:45;19.60;37.30
56172;DHT22;42052;41.634;-0.946;2023-02-08T17:58:31;19.70;37.30
56172;DHT22;42052;41.634;-0.946;2023-02-08T18:01:24;19.70;37.40
56172;DHT22;42052;41.634;-0.946;2023-02-08T18:04:10;19.70;37.30
56172;DHT22;42052;41.634;-0.946;2023-02-08T18:06:58;19.70;37.30
56172;DHT22;42052;41.634;-0.946;2023-02-08T18:09:44;19.70;37.40
56172;DHT22;42052;41.634;-0.946;2023-02-08T18:12:30;19.70;37.30
56172;DHT22;42052;41.634;-0.946;2023-02-08T18:15:19;19.80;38.10
56172;DHT22;42052;41.634;-0.946;2023-02-08T18:18:18;19.80;37.40
56172;DHT22;42052;41.634;-0.946;2023-02-08T18:21:13;19.80;37.40
56172;DHT22;42052;41.634;-0.946;2023-02-08T18:24:03;19.80;37.40
56172;DHT22;42052;41.634;-0.946;2023-02-08T18:26:50;19.80;37.50
56172;DHT22;42052;41.634;-0.946;2023-02-08T18:29:36;19.80;37.40
56172;DHT22;42052;41.634;-0.946;2023-02-08T18:32:22;19.80;37.40
56172;DHT22;42052;41.634;-0.946;2023-02-08T18:35:08;19.80;37.50
56172;DHT22;42052;41.634;-0.946;2023-02-08T18:37:54;19.80;37.50
56172;DHT22;42052;41.634;-0.946;2023-02-08T18:40:40;19.80;37.50
56172;DHT22;42052;41.634;-0.946;2023-02-08T18:43:26;19.80;37.50
56172;DHT22;42052;41.634;-0.946;2023-02-08T18:46:14;19.70;37.50
56172;DHT22;42052;41.634;-0.946;2023-02-08T18:49:02;19.70;37.50
56172;DHT22;42052;41.634;-0.946;2023-02-08T18:51:48;19.70;37.50
56172;DHT22;42052;41.634;-0.946;2023-02-08T18:54:39;19.80;37.60
56172;DHT22;42052;41.634;-0.946;2023-02-08T18:57:25;19.80;37.50
56172;DHT22;42052;41.634;-0.946;2023-02-08T19:00:11;19.80;37.60
56172;DHT22;42052;41.634;-0.946;2023-02-08T19:02:58;19.70;37.50
56172;DHT22;42052;41.634;-0.946;2023-02-08T19:05:44;19.80;37.60
56172;DHT22;42052;41.634;-0.946;2023-02-08T19:08:30;19.70;37.60
56172;DHT22;42052;41.634;-0.946;2023-02-08T19:11:19;19.70;38.30
56172;DHT22;42052;41.634;-0.946;2023-02-08T19:14:09;19.70;37.50
56172;DHT22;42052;41.634;-0.946;2023-02-08T19:16:55;19.70;37.60
56172;DHT22;42052;41.634;-0.946;2023-02-08T19:19:41;19.80;37.60
56172;DHT22;42052;41.634;-0.946;2023-02-08T19:22:27;19.70;37.60
56172;DHT22;42052;41.634;-0.946;2023-02-08T19:25:14;19.70;37.50
56172;DHT22;42052;41.634;-0.946;2023-02-08T19:28:00;19.80;37.60
56172;DHT22;42052;41.634;-0.946;2023-02-08T19:30:46;19.80;37.50
56172;DHT22;42052;41.634;-0.946;2023-02-08T19:33:32;19.80;37.60
56172;DHT22;42052;41.634;-0.946;2023-02-08T19:36:21;19.80;37.60
56172;DHT22;42052;41.634;-0.946;2023-02-08T19:39:07;19.80;37.50
56172;DHT22;42052;41.634;-0.946;2023-02-08T19:41:53;19.70;37.50
56172;DHT22;42052;41.634;-0.946;2023-02-08T19:44:40;19.80;37.50
56172;DHT22;42052;41.634;-0.946;2023-02-08T19:47:26;19.80;37.50
56172;DHT22;42052;41.634;-0.946;2023-02-08T19:50:12;19.70;37.50
56172;DHT22;42052;41.634;-0.946;2023-02-08T19:52:58;19.80;37.60
56172;DHT22;42052;41.634;-0.946;2023-02-08T19:55:54;19.80;37.60
56172;DHT22;42052;41.634;-0.946;2023-02-08T19:58:40;19.80;37.50
56172;DHT22;42052;41.634;-0.946;2023-02-08T20:01:27;19.80;37.50
56172;DHT22;42052;41.634;-0.946;2023-02-08T20:04:13;19.80;37.60
56172;DHT22;42052;41.634;-0.946;2023-02-08T20:07:00;19.80;37.60
56172;DHT22;42052;41.634;-0.946;2023-02-08T20:09:46;19.80;37.50
56172;DHT22;42052;41.634;-0.946;2023-02-08T20:12:32;19.80;37.50
56172;DHT22;42052;41.634;-0.946;2023-02-08T20:15:18;19.80;37.50
56172;DHT22;42052;41.634;-0.946;2023-02-08T20:18:06;19.80;37.50
56172;DHT22;42052;41.634;-0.946;2023-02-08T20:21:02;19.90;37.60
56172;DHT22;42052;41.634;-0.946;2023-02-08T20:23:49;19.80;37.60
56172;DHT22;42052;41.634;-0.946;2023-02-08T20:26:38;19.90;37.70
56172;DHT22;42052;41.634;-0.946;2023-02-08T20:29:25;19.90;37.70
56172;DHT22;42052;41.634;-0.946;2023-02-08T20:32:12;19.90;37.70
56172;DHT22;42052;41.634;-0.946;2023-02-08T20:34:58;19.90;37.70
56172;DHT22;42052;41.634;-0.946;2023-02-08T20:37:45;19.90;37.60
56172;DHT22;42052;41.634;-0.946;2023-02-08T20:40:32;19.90;37.70